Time;durP1;ratioP1;P1;durP2;ratioP2;P2;SDS_P1;SDS_P2;PMS_P1;PMS_P2;Temp;Humidity;BMP_temperature;BMP_pressure;BME280_temperature;BME280_humidity;BME280_pressure;Samples;Min_cycle;Max_cycle;Signal;HPM_P1;HPM_P2
2022/09/19 00:00:33;;;;;;;7.73;2.10;;;;;;;8.05;100.00;100193.72;5093651;28;20499;-84
2022/09/19 00:02:58;;;;;;;12.77;2.73;;;;;;;8.01;100.00;100193.56;5112565;28;20269;-83
2022/09/19 00:05:25;;;;;;;6.18;2.10;;;;;;;8.02;100.00;100195.16;5094281;28;20024;-83
2022/09/19 00:07:50;;;;;;;7.75;2.50;;;;;;;8.02;100.00;100187.03;5097721;28;20061;-84
2022/09/19 00:10:15;;;;;;;9.43;2.27;;;;;;;8.04;100.00;100192.94;5116195;28;20051;-85
2022/09/19 00:12:42;;;;;;;4.73;1.40;;;;;;;8.10;100.00;100186.25;5097136;28;20272;-85
2022/09/19 00:15:08;;;;;;;9.73;1.77;;;;;;;8.10;100.00;100188.97;5097707;28;20027;-84
2022/09/19 00:17:34;;;;;;;7.07;1.90;;;;;;;8.07;100.00;100188.81;5115891;28;20548;-85
2022/09/19 00:20:00;;;;;;;7.25;1.60;;;;;;;8.13;100.00;100190.25;5115755;28;20126;-86
2022/09/19 00:22:26;;;;;;;6.05;2.03;;;;;;;8.13;100.00;100191.06;5115858;28;20062;-85
2022/09/19 00:24:51;;;;;;;4.82;1.92;;;;;;;8.11;100.00;100187.06;5080167;28;20120;-84
2022/09/19 00:27:25;;;;;;;8.47;2.20;;;;;;;8.11;100.00;100190.56;5115728;28;20036;-85
2022/09/19 00:29:53;;;;;;;7.13;1.50;;;;;;;8.10;100.00;100194.41;5097442;28;20441;-83
2022/09/19 00:32:21;;;;;;;5.97;1.50;;;;;;;8.11;100.00;100187.84;5097513;28;20118;-83
2022/09/19 00:34:48;;;;;;;5.60;1.75;;;;;;;8.21;100.00;100189.44;5115433;28;20420;-81
2022/09/19 00:37:16;;;;;;;12.43;2.17;;;;;;;8.15;100.00;100194.25;5115394;28;20042;-81
2022/09/19 00:39:41;;;;;;;5.32;1.65;;;;;;;8.17;100.00;100196.63;5096790;28;20028;-81
2022/09/19 00:42:34;;;;;;;;;;;;;;;8.15;100.00;100188.81;5116115;28;20434;-79
2022/09/19 00:45:15;;;;;;;8.80;2.22;;;;;;;8.19;100.00;100201.75;5111523;28;20268;-81
2022/09/19 00:47:48;;;;;;;7.28;1.50;;;;;;;8.18;100.00;100203.66;5115269;28;20123;-80
2022/09/19 00:50:19;;;;;;;11.27;1.80;;;;;;;8.21;100.00;100199.50;5115605;28;20015;-81
2022/09/19 00:52:49;;;;;;;9.35;1.70;;;;;;;8.23;100.00;100205.41;5096877;28;20023;-80
2022/09/19 00:55:16;;;;;;;4.90;1.58;;;;;;;8.21;100.00;100196.78;5096957;28;20026;-81
2022/09/19 00:57:51;;;;;;;7.40;1.23;;;;;;;8.31;100.00;100202.72;5096788;28;20093;-81
2022/09/19 01:00:16;;;;;;;6.18;1.50;;;;;;;8.25;100.00;100205.91;5115446;28;20491;-80
2022/09/19 01:02:42;;;;;;;5.13;1.50;;;;;;;8.29;100.00;100209.59;5096489;28;20064;-80
2022/09/19 01:05:07;;;;;;;9.13;1.90;;;;;;;8.36;100.00;100204.50;5115194;28;20702;-80
2022/09/19 01:08:04;;;;;;;8.65;1.67;;;;;;;8.27;100.00;100203.69;5115307;28;20031;-81
2022/09/19 01:10:45;;;;;;;6.80;1.60;;;;;;;8.26;100.00;100208.31;5078430;28;20110;-80
2022/09/19 01:13:30;;;;;;;6.15;1.70;;;;;;;8.25;100.00;100203.22;5114870;28;20023;-80
2022/09/19 01:16:06;;;;;;;6.45;1.55;;;;;;;8.34;100.00;100206.75;5114926;28;20020;-80
2022/09/19 01:18:38;;;;;;;5.10;1.50;;;;;;;8.26;100.00;100210.22;5095553;28;20027;-82
2022/09/19 01:21:40;;;;;;;6.00;1.83;;;;;;;8.27;100.00;100215.34;5114591;28;20463;-79
2022/09/19 01:24:40;;;;;;;4.45;1.55;;;;;;;8.30;100.00;100222.03;5096431;28;20035;-81
2022/09/19 01:27:17;;;;;;;6.97;1.50;;;;;;;8.40;100.00;100219.06;5114694;28;20068;-80
2022/09/19 01:29:53;;;;;;;8.23;2.15;;;;;;;8.35;100.00;100219.19;5114740;28;20035;-83
2022/09/19 01:32:24;;;;;;;9.45;2.95;;;;;;;8.35;100.00;100214.56;5096146;28;20027;-81
2022/09/19 01:35:02;;;;;;;5.63;2.25;;;;;;;8.41;100.00;100220.66;5114406;28;20015;-82
2022/09/19 01:37:34;;;;;;;7.55;2.67;;;;;;;8.44;100.00;100217.31;5114670;28;20023;-81
2022/09/19 01:40:03;;;;;;;6.32;1.35;;;;;;;8.38;100.00;100219.34;5113784;28;20049;-81
2022/09/19 01:42:28;;;;;;;7.50;1.83;;;;;;;8.37;100.00;100222.38;5114274;28;20031;-80
2022/09/19 01:44:54;;;;;;;3.95;1.40;;;;;;;8.37;100.00;100225.09;5114048;28;20119;-82
2022/09/19 01:47:52;;;;;;;8.60;1.47;;;;;;;8.37;100.00;100227.81;5113762;28;20031;-82
2022/09/19 01:50:34;;;;;;;5.95;1.58;;;;;;;8.38;100.00;100237.53;5114235;28;20277;-82
2022/09/19 01:53:27;;;;;;;5.43;1.80;;;;;;;8.38;100.00;100237.53;5114184;28;20077;-84
2022/09/19 01:56:05;;;;;;;9.25;1.48;;;;;;;8.42;100.00;100238.53;5113908;28;20054;-85
2022/09/19 01:58:55;;;;;;;8.18;2.25;;;;;;;8.40;100.00;100227.19;5095491;28;20062;-83
2022/09/19 02:01:34;;;;;;;7.35;1.95;;;;;;;8.41;100.00;100229.59;5095300;28;20032;-83
2022/09/19 02:04:28;;;;;;;6.07;1.67;;;;;;;8.38;100.00;100229.41;5114037;28;20123;-83
2022/09/19 02:07:09;;;;;;;8.57;1.70;;;;;;;8.33;100.00;100240.38;5099376;28;20069;-85
2022/09/19 02:10:07;;;;;;;4.80;1.65;;;;;;;8.33;100.00;100237.69;5113893;28;20081;-83
2022/09/19 02:12:38;;;;;;;8.02;1.30;;;;;;;8.30;100.00;100243.75;5113128;28;20123;-83
2022/09/19 02:15:08;;;;;;;4.82;1.20;;;;;;;8.26;100.00;100238.16;5113407;28;20019;-83
2022/09/19 02:17:44;;;;;;;6.57;1.77;;;;;;;8.27;100.00;100245.19;5113604;28;20019;-83
2022/09/19 02:20:13;;;;;;;6.25;1.65;;;;;;;8.24;100.00;100245.81;5095242;28;20023;-84
2022/09/19 02:22:44;;;;;;;6.43;1.42;;;;;;;8.26;100.00;100245.50;5113392;28;20061;-84
2022/09/19 02:25:14;;;;;;;5.50;1.00;;;;;;;8.26;100.00;100250.91;5113020;28;20027;-86
2022/09/19 02:27:49;;;;;;;4.93;1.65;;;;;;;8.25;100.00;100235.75;5113241;28;20536;-85
2022/09/19 02:30:16;;;;;;;9.30;1.77;;;;;;;8.29;100.00;100242.94;5113167;28;20028;-85
2022/09/19 02:32:48;;;;;;;5.60;1.23;;;;;;;8.35;100.00;100246.31;5113576;28;20023;-85
2022/09/19 02:35:24;;;;;;;6.07;1.95;;;;;;;8.30;100.00;100241.03;5113185;28;20490;-86
2022/09/19 02:37:59;;;;;;;8.05;3.03;;;;;;;8.30;100.00;100260.03;5078123;28;20038;-86
2022/09/19 02:40:32;;;;;;;6.85;2.28;;;;;;;8.18;100.00;100259.81;5113259;28;20554;-88
2022/09/19 02:43:20;;;;;;;6.50;1.77;;;;;;;8.35;100.00;100257.19;5113222;28;20478;-87
2022/09/19 02:45:51;;;;;;;6.40;1.60;;;;;;;8.23;100.00;100259.66;5114018;28;20110;-87
2022/09/19 02:48:24;;;;;;;5.78;2.13;;;;;;;8.21;100.00;100265.41;5113608;28;20027;-87
2022/09/19 02:51:11;;;;;;;9.90;2.22;;;;;;;8.32;100.00;100268.63;5113899;28;20152;-88
2022/09/19 02:53:44;;;;;;;9.10;2.20;;;;;;;8.26;100.00;100270.72;5110993;28;20072;-88
2022/09/19 02:56:13;;;;;;;8.32;1.38;;;;;;;8.26;100.00;100270.72;5092531;28;20035;-89
2022/09/19 02:58:53;;;;;;;11.57;2.50;;;;;;;8.27;100.00;100271.50;5095443;28;20027;-91
2022/09/19 03:01:23;;;;;;;5.43;1.50;;;;;;;8.37;100.00;100269.31;5078173;28;20028;-90
2022/09/19 03:04:12;;;;;;;5.28;1.25;;;;;;;8.34;100.00;100271.84;5112963;28;20116;-90
2022/09/19 03:06:59;;;;;;;9.27;2.10;;;;;;;8.24;100.00;100280.28;5113022;28;20034;-87
2022/09/19 03:09:30;;;;;;;8.27;1.27;;;;;;;8.25;100.00;100279.16;5095943;28;20020;-91
2022/09/19 03:12:18;;;;;;;8.70;1.55;;;;;;;8.23;100.00;100278.66;5078835;28;20039;-91
2022/09/19 03:14:45;;;;;;;8.80;1.60;;;;;;;8.29;100.00;100278.22;5095621;28;20027;-91
2022/09/19 03:17:16;;;;;;;8.23;1.85;;;;;;;8.28;100.00;100283.94;5114371;28;20024;-92
2022/09/19 03:19:45;;;;;;;9.88;1.80;;;;;;;8.30;100.00;100281.72;5114913;28;20020;-90
2022/09/19 03:22:11;;;;;;;11.00;1.50;;;;;;;8.35;100.00;100273.47;5114139;28;20024;-92
2022/09/19 03:24:38;;;;;;;6.78;1.40;;;;;;;8.34;100.00;100282.72;5112374;28;20035;-91
2022/09/19 03:27:05;;;;;;;4.65;1.17;;;;;;;8.38;100.00;100280.97;5094851;28;20034;-91
2022/09/19 03:29:31;;;;;;;7.22;1.55;;;;;;;8.44;100.00;100280.50;5112811;28;20023;-89
2022/09/19 03:31:56;;;;;;;9.05;2.17;;;;;;;8.44;100.00;100285.16;5113430;28;20502;-93
2022/09/19 03:34:22;;;;;;;10.35;1.90;;;;;;;8.41;100.00;100291.22;5113888;28;20043;-90
2022/09/19 03:36:48;;;;;;;12.18;2.28;;;;;;;8.48;100.00;100283.38;5096316;28;20050;-92
2022/09/19 03:39:16;;;;;;;4.18;0.98;;;;;;;8.52;100.00;100284.34;5096253;28;20100;-93
2022/09/19 03:41:43;;;;;;;7.18;1.48;;;;;;;8.53;100.00;100285.16;5096099;28;20583;-94
2022/09/19 03:44:09;;;;;;;11.13;1.60;;;;;;;8.52;100.00;100286.25;5097999;28;20047;-91
2022/09/19 03:46:35;;;;;;;5.28;1.30;;;;;;;8.63;100.00;100291.09;5096544;28;20118;-93
2022/09/19 03:49:02;;;;;;;;;;;;;;;8.55;100.00;100289.13;5097265;28;20028;-87
2022/09/19 03:51:30;;;;;;;;;;;;;;;8.50;100.00;100286.59;5097161;28;19954;-89
2022/09/19 03:53:56;;;;;;;;;;;;;;;8.49;100.00;100293.13;5096696;28;19990;-85
2022/09/19 03:56:22;;;;;;;10.65;1.88;;;;;;;8.47;100.00;100287.22;5094742;28;19934;-87
2022/09/19 03:58:47;;;;;;;8.45;1.67;;;;;;;8.44;100.00;100280.50;5094895;28;20469;-87
2022/09/19 04:01:14;;;;;;;9.38;2.38;;;;;;;8.48;100.00;100280.66;5095921;28;20031;-89
2022/09/19 04:03:43;;;;;;;10.63;1.90;;;;;;;8.46;100.00;100285.63;5096082;28;20431;-90
2022/09/19 04:06:10;;;;;;;9.23;1.60;;;;;;;8.42;100.00;100284.66;5096532;28;20503;-91
2022/09/19 04:08:36;;;;;;;5.78;1.63;;;;;;;8.44;100.00;100290.56;5095578;28;20545;-88
2022/09/19 04:11:01;;;;;;;7.10;1.50;;;;;;;8.49;100.00;100295.84;5095267;28;20102;-88
2022/09/19 04:13:28;;;;;;;3.80;1.48;;;;;;;8.47;100.00;100298.06;5094316;28;20468;-91
2022/09/19 04:15:54;;;;;;;;;;;;;;;8.44;100.00;100288.66;5096353;28;20015;-93
2022/09/19 04:18:20;;;;;;;9.70;1.40;;;;;;;8.44;100.00;100293.28;5096421;28;20330;-88
2022/09/19 04:20:47;;;;;;;9.88;1.48;;;;;;;8.42;100.00;100295.50;5095503;28;20032;-89
2022/09/19 04:23:16;;;;;;;7.03;2.08;;;;;;;8.42;100.00;100295.50;5095861;28;20056;-89
2022/09/19 04:25:42;;;;;;;10.27;2.58;;;;;;;8.42;100.00;100306.38;5094526;28;20415;-87
2022/09/19 04:28:10;;;;;;;;;;;;;;;8.43;100.00;100310.69;5096015;28;20016;-87
2022/09/19 04:30:36;;;;;;;7.22;1.30;;;;;;;8.48;100.00;100307.00;5095310;28;20391;-88
2022/09/19 04:33:07;;;;;;;5.72;1.30;;;;;;;8.49;100.00;100311.31;5093970;28;20484;-87
2022/09/19 04:35:35;;;;;;;10.63;1.88;;;;;;;8.49;100.00;100303.97;5093626;28;20557;-87
2022/09/19 04:38:08;;;;;;;6.53;1.38;;;;;;;8.50;100.00;100312.91;5093796;28;20121;-87
2022/09/19 04:40:41;;;;;;;5.30;1.70;;;;;;;8.42;100.00;100314.50;5090746;28;20036;-85
2022/09/19 04:43:09;;;;;;;6.53;1.52;;;;;;;8.51;100.00;100317.22;5093446;28;20452;-90
2022/09/19 04:45:35;;;;;;;10.45;1.98;;;;;;;8.53;100.00;100318.50;5095072;28;20029;-88
2022/09/19 04:48:04;;;;;;;6.47;1.65;;;;;;;8.49;100.00;100317.53;5095576;28;20382;-87
2022/09/19 04:50:30;;;;;;;21.30;1.83;;;;;;;8.49;100.00;100320.25;5094872;28;20073;-86
2022/09/19 04:52:57;;;;;;;7.32;2.72;;;;;;;8.48;100.00;100329.53;5093754;28;20016;-86
2022/09/19 04:55:24;;;;;;;5.32;2.15;;;;;;;8.46;100.00;100330.97;5094650;28;20031;-85
2022/09/19 04:57:49;;;;;;;7.18;2.17;;;;;;;8.42;100.00;100331.59;5094735;28;20023;-86
2022/09/19 05:00:14;;;;;;;8.27;1.95;;;;;;;8.44;100.00;100337.50;5095369;28;20031;-85
2022/09/19 05:02:40;;;;;;;5.70;1.40;;;;;;;8.41;100.00;100331.91;5096094;28;20031;-85
2022/09/19 05:05:06;;;;;;;7.43;2.60;;;;;;;8.39;100.00;100334.09;5096412;28;20024;-85
2022/09/19 05:07:35;;;;;;;4.38;1.33;;;;;;;8.40;100.00;100336.53;5094485;28;20128;-85
2022/09/19 05:10:02;;;;;;;6.60;2.08;;;;;;;8.56;100.00;100331.44;5096348;28;20491;-86
2022/09/19 05:12:28;;;;;;;9.15;2.30;;;;;;;8.49;100.00;100341.97;5094798;28;20036;-85
2022/09/19 05:14:54;;;;;;;8.38;1.83;;;;;;;8.55;100.00;100337.19;5095642;28;20484;-86
2022/09/19 05:17:19;;;;;;;;;;;;;;;8.50;100.00;100342.78;5096142;28;20024;-84
2022/09/19 05:19:45;;;;;;;7.67;2.20;;;;;;;8.53;100.00;100348.38;5094349;28;20383;-85
2022/09/19 05:22:11;;;;;;;2.80;1.33;;;;;;;8.50;100.00;100354.44;5095321;28;20680;-84
2022/09/19 05:24:37;;;;;;;7.00;1.33;;;;;;;8.61;100.00;100347.59;5094922;28;20036;-84
2022/09/19 05:27:03;;;;;;;8.15;1.55;;;;;;;8.59;100.00;100351.75;5094227;28;20032;-84
2022/09/19 05:29:28;;;;;;;6.97;1.90;;;;;;;8.57;100.00;100362.94;5077593;28;20031;-84
2022/09/19 05:32:03;;;;;;;6.10;2.58;;;;;;;8.61;100.00;100363.09;5095392;28;20065;-84
2022/09/19 05:34:28;;;;;;;4.45;1.65;;;;;;;8.80;100.00;100350.03;5095661;28;20488;-85
2022/09/19 05:36:53;;;;;;;7.07;2.20;;;;;;;8.67;100.00;100365.34;5094897;28;20035;-85
2022/09/19 05:39:19;;;;;;;8.15;1.95;;;;;;;8.81;100.00;100361.69;5094910;28;20032;-85
2022/09/19 05:41:44;;;;;;;12.98;1.95;;;;;;;8.78;100.00;100368.56;5093391;28;20059;-86
2022/09/19 05:44:09;;;;;;;7.87;2.67;;;;;;;8.71;100.00;100369.00;5095090;28;20031;-85
2022/09/19 05:46:35;;;;;;;5.82;1.77;;;;;;;8.84;100.00;100366.50;5095258;28;20030;-85
2022/09/19 05:49:00;;;;;;;6.13;2.00;;;;;;;8.69;100.00;100373.97;5094417;28;20051;-83
2022/09/19 05:51:25;;;;;;;4.68;1.60;;;;;;;8.62;100.00;100376.34;5095366;28;20210;-86
2022/09/19 05:53:55;;;;;;;6.10;1.57;;;;;;;8.64;100.00;100382.25;5093731;28;20146;-85
2022/09/19 05:56:21;;;;;;;6.43;1.73;;;;;;;8.57;100.00;100381.94;5094300;28;20266;-85
2022/09/19 05:58:52;;;;;;;5.60;1.80;;;;;;;8.42;100.00;100382.34;5094876;28;20442;-86
2022/09/19 06:01:17;;;;;;;4.65;1.45;;;;;;;8.40;100.00;100379.16;5094568;28;20527;-85
2022/09/19 06:03:44;;;;;;;6.87;1.53;;;;;;;8.27;100.00;100390.88;5092340;28;20028;-85
2022/09/19 06:06:13;;;;;;;7.18;1.67;;;;;;;8.30;100.00;100385.63;5093143;28;20266;-86
2022/09/19 06:08:40;;;;;;;3.95;2.08;;;;;;;8.33;100.00;100390.41;5094107;28;20020;-84
2022/09/19 06:11:06;;;;;;;4.55;1.15;;;;;;;8.49;100.00;100392.75;5094027;28;20095;-83
2022/09/19 06:16:17;;;;;;;5.40;1.30;;;;;;;8.66;100.00;100390.06;5094215;28;19973;-84
2022/09/19 06:18:43;;;;;;;4.22;1.33;;;;;;;8.43;100.00;100395.59;5093472;28;20545;-86
2022/09/19 06:21:08;;;;;;;12.40;1.92;;;;;;;8.58;100.00;100394.38;5093342;28;20024;-85
2022/09/19 06:23:34;;;;;;;5.13;1.57;;;;;;;8.67;100.00;100395.19;5093317;28;20441;-85
2022/09/19 06:25:59;;;;;;;6.72;1.50;;;;;;;8.50;100.00;100399.75;5090772;28;20035;-86
2022/09/19 06:28:27;;;;;;;7.68;1.42;;;;;;;8.68;100.00;100406.84;5093740;28;20536;-85
2022/09/19 06:30:53;;;;;;;3.38;1.25;;;;;;;8.61;100.00;100412.75;5096234;28;20107;-85
2022/09/19 06:33:19;;;;;;;5.38;1.40;;;;;;;8.72;100.00;100415.97;5092800;28;20103;-85
2022/09/19 06:35:44;;;;;;;4.65;1.60;;;;;;;8.91;100.00;100421.16;5091052;28;20028;-85
2022/09/19 06:38:10;;;;;;;4.87;1.33;;;;;;;8.99;100.00;100423.06;5092380;28;20087;-84
2022/09/19 06:40:38;;;;;;;4.85;2.08;;;;;;;8.97;100.00;100420.69;5102152;28;20306;-84
2022/09/19 06:43:06;;;;;;;6.18;1.50;;;;;;;9.05;100.00;100433.47;5094938;28;20456;-85
2022/09/19 06:45:41;;;;;;;11.23;2.58;;;;;;;9.22;100.00;100432.69;5095465;28;20035;-85
2022/09/19 06:48:09;;;;;;;4.97;1.95;;;;;;;9.08;100.00;100437.47;5112837;28;20023;-83
2022/09/19 06:50:34;;;;;;;3.80;1.65;;;;;;;9.19;100.00;100438.75;5112584;28;20098;-85
2022/09/19 06:53:00;;;;;;;6.88;1.95;;;;;;;9.29;100.00;100443.91;5112823;28;20051;-85
2022/09/19 06:55:27;;;;;;;6.63;2.05;;;;;;;9.44;100.00;100445.34;5094964;28;20035;-84
2022/09/19 06:58:01;;;;;;;6.38;1.95;;;;;;;9.29;100.00;100448.53;5095068;28;20442;-84
2022/09/19 07:00:30;;;;;;;6.25;2.05;;;;;;;9.57;100.00;100444.41;5077544;28;20074;-84
2022/09/19 07:03:03;;;;;;;8.43;2.38;;;;;;;9.55;100.00;100451.25;5094638;28;20107;-84
2022/09/19 07:05:34;;;;;;;8.02;2.13;;;;;;;9.73;100.00;100447.41;5095164;28;20062;-86
2022/09/19 07:08:00;;;;;;;6.63;2.15;;;;;;;9.72;100.00;100453.19;5088313;28;20019;-84
2022/09/19 07:10:26;;;;;;;5.45;1.95;;;;;;;9.86;100.00;100451.09;5112573;28;20015;-83
2022/09/19 07:12:56;;;;;;;5.93;1.65;;;;;;;9.90;100.00;100452.84;5094080;28;20369;-83
2022/09/19 07:15:23;;;;;;;4.97;2.08;;;;;;;9.98;100.00;100461.34;5093454;28;20043;-84
2022/09/19 07:17:55;;;;;;;9.73;1.90;;;;;;;10.08;100.00;100467.25;5076786;28;20032;-84
2022/09/19 07:20:21;;;;;;;5.15;1.80;;;;;;;10.22;100.00;100470.59;5112648;28;20023;-83
2022/09/19 07:22:47;;;;;;;4.65;1.33;;;;;;;10.31;100.00;100469.78;5113547;28;20049;-84
2022/09/19 07:25:13;;;;;;;4.18;1.83;;;;;;;10.43;99.84;100476.16;5112411;28;20019;-84
2022/09/19 07:27:42;;;;;;;4.43;1.60;;;;;;;10.59;100.00;100472.94;5094283;28;20071;-84
2022/09/19 07:30:08;;;;;;;9.60;1.88;;;;;;;10.86;97.95;100477.91;5113545;28;20028;-84
2022/09/19 07:32:33;;;;;;;8.07;1.50;;;;;;;10.85;97.36;100485.28;5093573;28;20476;-84
2022/09/19 07:34:59;;;;;;;7.32;1.27;;;;;;;11.01;97.99;100468.41;5112671;28;20457;-85
2022/09/19 07:37:24;;;;;;;6.75;1.63;;;;;;;10.95;96.52;100469.72;5112871;28;20027;-85
2022/09/19 07:39:51;;;;;;;4.28;1.05;;;;;;;11.05;96.74;100483.75;5094413;28;20032;-87
2022/09/19 07:42:16;;;;;;;8.13;1.73;;;;;;;11.06;96.09;100482.63;5094713;28;20019;-87
2022/09/19 07:44:42;;;;;;;5.78;1.40;;;;;;;11.07;95.46;100477.97;5114768;28;20525;-86
2022/09/19 07:49:55;;;;;;;5.80;1.20;;;;;;;11.11;96.49;100485.19;5099591;28;20446;-83
2022/09/19 07:52:22;;;;;;;7.68;1.50;;;;;;;11.11;95.56;100493.34;5094040;28;20046;-82
2022/09/19 07:54:51;;;;;;;10.02;2.10;;;;;;;11.26;95.20;100496.66;5113504;28;20024;-86
2022/09/19 07:57:17;;;;;;;9.18;1.60;;;;;;;11.38;96.42;100491.25;5093844;28;20055;-86
2022/09/19 07:59:43;;;;;;;9.23;1.63;;;;;;;11.47;95.83;100496.66;5111451;28;20467;-83
2022/09/19 08:02:09;;;;;;;7.30;1.30;;;;;;;11.43;94.88;100499.28;5094432;28;20031;-83
2022/09/19 08:04:37;;;;;;;3.38;1.08;;;;;;;11.54;94.67;100508.63;5113810;28;20092;-85
2022/09/19 08:07:04;;;;;;;3.92;1.25;;;;;;;11.56;93.37;100511.81;5094802;28;20031;-86
2022/09/19 08:09:30;;;;;;;4.20;1.10;;;;;;;11.59;93.55;100515.81;5113075;28;20065;-85
2022/09/19 08:11:57;;;;;;;2.55;0.85;;;;;;;11.63;92.30;100501.22;5114041;28;20023;-84
2022/09/19 08:14:22;;;;;;;;;;;;;;;11.64;92.38;100507.47;5078188;28;20032;-83
2022/09/19 08:16:50;;;;;;;3.35;0.90;;;;;;;11.80;92.41;100519.41;5113946;28;19915;-82
2022/09/19 08:19:15;;;;;;;4.57;1.30;;;;;;;11.96;91.40;100516.88;5114205;28;20031;-84
2022/09/19 08:21:41;;;;;;;7.32;1.45;;;;;;;12.14;90.92;100512.84;5113630;28;20441;-85
2022/09/19 08:24:07;;;;;;;2.33;0.52;;;;;;;12.19;89.88;100509.91;5113690;28;20445;-82
2022/09/19 08:26:33;;;;;;;5.32;1.60;;;;;;;12.37;91.19;100515.19;5094297;28;20031;-84
2022/09/19 08:29:00;;;;;;;;;;;;;;;12.41;88.32;100518.84;5116369;28;20467;-83
2022/09/19 08:31:26;;;;;;;1.50;0.50;;;;;;;12.54;87.37;100523.22;5115717;28;20367;-83
2022/09/19 08:33:51;;;;;;;4.20;0.68;;;;;;;12.45;86.77;100514.31;5115746;28;20038;-82
2022/09/19 08:36:17;;;;;;;3.72;1.00;;;;;;;12.42;87.18;100520.44;5115825;28;20042;-83
2022/09/19 08:38:44;;;;;;;6.25;0.85;;;;;;;12.54;86.79;100525.94;5097056;28;20046;-83
2022/09/19 08:41:31;;;;;;;2.47;0.90;;;;;;;12.65;86.88;100529.84;5098074;28;20475;-83
2022/09/19 08:44:31;;;;;;;6.57;1.00;;;;;;;12.60;85.61;100524.63;5116129;28;20035;-84
2022/09/19 08:47:13;;;;;;;5.28;1.60;;;;;;;13.04;85.90;100519.41;5094932;28;20032;-84
2022/09/19 08:49:55;;;;;;;6.38;1.50;;;;;;;13.12;85.62;100526.72;5098452;28;20059;-85
2022/09/19 08:52:47;;;;;;;5.50;1.38;;;;;;;13.02;85.03;100538.09;5111801;28;20031;-83
2022/09/19 08:55:22;;;;;;;5.78;1.08;;;;;;;13.04;84.57;100535.81;5079245;28;20043;-83
2022/09/19 08:57:58;;;;;;;3.85;1.10;;;;;;;12.99;84.52;100527.84;5115725;28;20421;-86
2022/09/19 09:00:30;;;;;;;7.38;1.15;;;;;;;13.24;84.46;100527.53;5116855;28;20023;-84
2022/09/19 09:03:05;;;;;;;3.20;0.88;;;;;;;13.17;85.49;100524.53;5116042;28;20054;-85
2022/09/19 09:05:45;;;;;;;6.03;0.80;;;;;;;13.18;84.69;100531.66;5115077;28;20316;-83
2022/09/19 09:08:33;;;;;;;5.40;1.02;;;;;;;13.19;84.10;100526.97;5096684;28;20020;-84
2022/09/19 09:11:07;;;;;;;5.32;0.60;;;;;;;13.34;82.82;100534.50;5115273;28;20023;-84
2022/09/19 09:13:44;;;;;;;8.93;0.90;;;;;;;13.57;82.33;100525.78;5115152;28;20023;-84
2022/09/19 09:16:13;;;;;;;5.53;1.05;;;;;;;13.73;81.96;100529.41;5096995;28;20019;-83
2022/09/19 09:18:57;;;;;;;3.90;1.23;;;;;;;13.82;81.41;100532.81;5117135;28;20043;-85
2022/09/19 09:21:43;;;;;;;5.93;0.93;;;;;;;13.64;81.32;100548.72;5096541;28;20070;-86
2022/09/19 09:24:20;;;;;;;5.53;1.27;;;;;;;13.73;80.63;100534.88;5097270;28;20059;-84
2022/09/19 09:26:48;;;;;;;;;;;;;;;13.58;82.21;100533.66;5097815;28;20118;-83
2022/09/19 09:29:46;;;;;;;3.47;0.90;;;;;;;13.55;81.94;100532.41;5115216;28;19908;-86
2022/09/19 09:32:16;;;;;;;4.53;1.15;;;;;;;13.55;81.95;100537.88;5059619;28;20027;-84
2022/09/19 09:35:14;;;;;;;4.82;0.90;;;;;;;13.56;82.44;100535.94;5098627;28;20042;-86
2022/09/19 09:37:48;;;;;;;3.45;1.00;;;;;;;13.55;83.18;100535.16;5097162;28;20036;-88
2022/09/19 09:43:09;;;;;;;4.28;1.35;;;;;;;13.86;82.75;100541.94;5115636;28;20127;-87
2022/09/19 09:45:49;;;;;;;3.35;1.13;;;;;;;13.85;82.06;100530.19;5115382;28;20028;-87
2022/09/19 09:48:24;;;;;;;5.38;0.90;;;;;;;13.92;80.89;100529.59;5096452;28;20040;-88
2022/09/19 09:51:04;;;;;;;1.83;0.68;;;;;;;13.93;79.33;100531.16;5115036;28;20016;-87
2022/09/19 09:53:49;;;;;;;4.25;1.20;;;;;;;14.02;79.39;100537.31;5114747;28;20026;-87
2022/09/19 09:56:17;;;;;;;3.38;0.68;;;;;;;14.14;78.69;100531.81;5115052;28;20024;-87
2022/09/19 09:59:01;;;;;;;3.60;0.82;;;;;;;14.09;77.28;100537.50;5115243;28;20031;-88
2022/09/19 10:04:46;;;;;;;6.15;1.05;;;;;;;13.95;76.71;100534.38;5114967;28;20514;-87
2022/09/19 10:07:24;;;;;;;7.65;0.80;;;;;;;14.02;76.10;100526.38;5114688;28;20035;-89
2022/09/19 10:09:58;;;;;;;4.28;0.85;;;;;;;14.07;76.54;100539.00;5114730;28;20353;-87
2022/09/19 10:12:32;;;;;;;4.00;0.73;;;;;;;14.05;75.71;100531.13;5114355;28;20039;-87
2022/09/19 10:15:03;;;;;;;3.53;0.75;;;;;;;14.06;73.56;100535.47;5113949;28;20038;-85
2022/09/19 10:17:33;;;;;;;4.55;0.70;;;;;;;14.11;72.09;100535.25;5095843;28;20088;-86
2022/09/19 10:20:08;;;;;;;2.40;0.95;;;;;;;14.17;71.55;100541.25;5096116;28;20015;-88
2022/09/19 10:22:34;;;;;;;5.00;1.27;;;;;;;14.20;72.46;100539.75;5096238;28;20053;-87
2022/09/19 10:25:08;;;;;;;3.08;1.05;;;;;;;14.08;74.31;100533.19;5114396;28;20073;-89
2022/09/19 10:27:35;;;;;;;2.97;0.93;;;;;;;14.06;75.06;100538.22;5097429;28;20023;-88
2022/09/19 10:30:19;;;;;;;7.68;1.00;;;;;;;13.94;73.31;100527.31;5114363;28;20023;-91
2022/09/19 10:32:50;;;;;;;2.78;0.65;;;;;;;14.04;73.40;100526.00;5114671;28;20065;-91
2022/09/19 10:35:38;;;;;;;2.55;0.50;;;;;;;14.12;73.14;100525.88;5114196;28;20039;-90
2022/09/19 10:38:17;;;;;;;6.75;0.90;;;;;;;14.40;73.06;100522.31;5117070;28;20034;-91
2022/09/19 10:41:02;;;;;;;8.20;1.00;;;;;;;14.37;69.39;100517.53;5094889;28;20070;-83
2022/09/19 10:43:31;;;;;;;2.08;0.70;;;;;;;14.51;69.72;100525.38;5094351;28;20534;-90
2022/09/19 10:46:15;;;;;;;3.67;0.80;;;;;;;14.58;68.86;100515.41;5096084;28;20047;-85
2022/09/19 10:48:50;;;;;;;4.75;0.60;;;;;;;14.36;68.86;100521.44;5090135;28;20034;-88
2022/09/19 10:51:16;;;;;;;2.80;0.65;;;;;;;14.45;69.61;100513.91;5092561;28;20115;-90
2022/09/19 10:53:46;;;;;;;3.05;1.20;;;;;;;14.59;69.44;100516.97;5091942;28;20537;-90
2022/09/19 10:56:22;;;;;;;2.47;0.80;;;;;;;14.70;68.12;100512.59;5091984;28;20084;-86
2022/09/19 10:58:59;;;;;;;3.20;0.63;;;;;;;14.86;68.28;100515.34;5095362;28;20020;-88
2022/09/19 11:01:26;;;;;;;6.18;1.23;;;;;;;15.12;68.42;100514.81;5096315;28;20055;-90
2022/09/19 11:04:21;;;;;;;5.32;1.23;;;;;;;15.25;67.41;100510.78;5097588;28;20133;-89
2022/09/19 11:07:16;;;;;;;7.88;1.73;;;;;;;15.08;66.97;100513.91;5099710;28;20024;-91
2022/09/19 11:09:44;;;;;;;2.50;0.43;;;;;;;15.26;64.26;100512.38;5089209;28;20044;-84
2022/09/19 11:12:15;;;;;;;3.05;1.08;;;;;;;15.20;64.36;100504.78;5094262;28;20034;-89
2022/09/19 11:14:48;;;;;;;3.13;0.70;;;;;;;15.20;65.40;100507.53;5095889;28;20102;-89
2022/09/19 11:17:39;;;;;;;3.53;1.20;;;;;;;15.23;65.43;100512.31;5095854;28;20415;-85
2022/09/19 11:20:16;;;;;;;2.83;0.82;;;;;;;15.47;66.18;100505.81;5095119;28;20103;-82
2022/09/19 11:23:13;;;;;;;3.92;0.65;;;;;;;15.37;65.11;100500.88;5094682;28;20043;-85
2022/09/19 11:26:03;;;;;;;4.70;0.68;;;;;;;15.35;65.67;100506.72;5093452;28;20473;-84
2022/09/19 11:28:43;;;;;;;2.80;0.65;;;;;;;15.32;66.35;100494.50;5090885;28;20058;-82
2022/09/19 11:31:14;;;;;;;3.15;0.82;;;;;;;15.38;66.50;100503.25;5091884;28;20032;-82
2022/09/19 11:34:05;;;;;;;7.63;0.65;;;;;;;15.29;69.09;100506.19;5092680;28;20027;-84
2022/09/19 11:36:49;;;;;;;2.22;0.68;;;;;;;15.11;70.79;100496.72;5090399;28;20062;-83
2022/09/19 11:39:20;;;;;;;3.85;1.00;;;;;;;14.75;69.25;100503.28;5092200;28;20035;-84
2022/09/19 11:42:14;;;;;;;2.78;0.55;;;;;;;14.75;70.75;100514.25;5107079;28;20097;-85
2022/09/19 11:44:43;;;;;;;1.20;0.40;;;;;;;14.02;72.38;100518.16;5064302;28;20092;-85
2022/09/19 11:47:38;;;;;;;4.95;1.05;;;;;;;13.52;76.88;100535.84;5093988;28;20030;-79
2022/09/19 11:50:23;;;;;;;4.53;0.80;;;;;;;13.27;81.37;100544.38;5112353;28;20069;-83
2022/09/19 11:53:18;;;;;;;2.60;0.50;;;;;;;12.82;83.18;100546.03;5112857;28;20034;-83
2022/09/19 11:56:05;;;;;;;2.83;0.63;;;;;;;12.59;81.22;100539.38;5094863;28;20031;-85
2022/09/19 11:58:43;;;;;;;1.67;0.50;;;;;;;12.61;81.42;100542.59;5113684;28;20072;-83
2022/09/19 12:01:41;;;;;;;1.35;0.50;;;;;;;12.80;81.50;100537.41;5113528;28;20024;-86